Time;durP1;ratioP1;P1;durP2;ratioP2;P2;SDS_P1;SDS_P2;PMS_P1;PMS_P2;Temp;Humidity;BMP_temperature;BMP_pressure;BME280_temperature;BME280_humidity;BME280_pressure;Samples;Min_cycle;Max_cycle;Signal;HPM_P1;HPM_P2
2021/10/29 00:02:04;;;;;;;;;;;9.60;95.40;;;;;;5095172;28;19914;-79
2021/10/29 00:04:30;;;;;;;;;;;9.60;95.40;;;;;;5094777;28;19944;-80
2021/10/29 00:06:55;;;;;;;;;;;9.60;95.40;;;;;;5094535;28;19915;-79
2021/10/29 00:09:20;;;;;;;;;;;9.60;95.40;;;;;;5094959;28;19908;-79
2021/10/29 00:11:46;;;;;;;;;;;9.60;95.70;;;;;;5094220;28;20268;-79
2021/10/29 00:14:11;;;;;;;;;;;9.60;95.40;;;;;;5094826;28;19915;-79
2021/10/29 00:16:37;;;;;;;;;;;9.60;95.40;;;;;;5094630;28;19931;-79
2021/10/29 00:19:02;;;;;;;;;;;9.50;95.30;;;;;;5094265;28;19912;-80
2021/10/29 00:21:28;;;;;;;;;;;9.50;95.40;;;;;;5094002;28;19908;-80
2021/10/29 00:23:56;;;;;;;;;;;9.50;95.40;;;;;;5094602;28;19919;-79
2021/10/29 00:26:21;;;;;;;;;;;9.50;95.40;;;;;;5094722;28;19909;-79
2021/10/29 00:28:47;;;;;;;;;;;9.50;95.40;;;;;;5093250;28;19937;-77
2021/10/29 00:31:12;;;;;;;;;;;9.50;95.40;;;;;;5094404;28;19914;-80
2021/10/29 00:33:38;;;;;;;;;;;9.40;95.40;;;;;;5094437;28;19982;-79
2021/10/29 00:36:03;;;;;;;;;;;9.50;95.40;;;;;;5094185;28;19978;-79
2021/10/29 00:38:29;;;;;;;;;;;9.50;95.40;;;;;;5094140;28;19912;-80
2021/10/29 00:40:54;;;;;;;;;;;9.50;95.40;;;;;;5094418;28;19908;-79
2021/10/29 00:43:20;;;;;;;;;;;9.50;95.40;;;;;;5076047;28;20257;-80
2021/10/29 00:45:45;;;;;;;;;;;9.50;95.40;;;;;;5094271;28;20007;-79
2021/10/29 00:48:13;;;;;;;;;;;9.50;95.70;;;;;;5093418;28;19916;-79
2021/10/29 00:50:38;;;;;;;;;;;9.50;95.40;;;;;;5093609;28;19920;-79
2021/10/29 00:53:04;;;;;;;;;;;9.50;95.40;;;;;;5093996;28;19924;-78
2021/10/29 00:55:29;;;;;;;;;;;9.50;95.40;;;;;;5094165;28;19940;-80
2021/10/29 00:57:55;;;;;;;;;;;9.50;95.40;;;;;;5093787;28;20323;-79
2021/10/29 01:00:20;;;;;;;;;;;9.50;95.40;;;;;;5094076;28;20010;-79
2021/10/29 01:02:46;;;;;;;;;;;9.50;95.50;;;;;;5075996;28;19908;-79
2021/10/29 01:05:11;;;;;;;;;;;9.50;95.40;;;;;;5075233;28;19915;-78
2021/10/29 01:07:37;;;;;;;;;;;9.50;95.40;;;;;;5093735;28;19916;-80
2021/10/29 01:10:04;;;;;;;;;;;9.50;95.50;;;;;;5093877;28;19957;-79
2021/10/29 01:12:30;;;;;;;;;;;9.50;95.50;;;;;;5093953;28;20285;-79
2021/10/29 01:14:56;;;;;;;;;;;9.50;95.40;;;;;;5075841;28;19915;-79
2021/10/29 01:17:21;;;;;;;;;;;9.50;95.50;;;;;;5075424;28;20426;-78
2021/10/29 01:19:49;;;;;;;;;;;9.50;95.40;;;;;;5093081;28;19958;-80
2021/10/29 01:22:15;;;;;;;;;;;9.50;95.40;;;;;;5093569;28;20264;-78
2021/10/29 01:24:40;;;;;;;;;;;9.40;95.40;;;;;;5093851;28;19994;-79
2021/10/29 01:27:09;;;;;;;;;;;9.40;95.40;;;;;;5094036;28;20357;-79
2021/10/29 01:29:36;;;;;;;;;;;9.40;95.40;;;;;;5094531;28;19908;-78
2021/10/29 01:32:02;;;;;;;;;;;9.40;95.30;;;;;;5095048;28;19916;-78
2021/10/29 01:34:27;;;;;;;;;;;9.30;95.40;;;;;;5097587;28;20015;-78
2021/10/29 01:36:52;;;;;;;;;;;9.30;95.40;;;;;;5097980;28;19912;-79
2021/10/29 01:39:18;;;;;;;;;;;9.30;95.40;;;;;;5098185;28;19944;-79
2021/10/29 01:41:44;;;;;;;;;;;9.30;95.40;;;;;;5097006;28;19923;-78
2021/10/29 01:44:10;;;;;;;;;;;9.30;95.40;;;;;;5097648;28;19909;-79
2021/10/29 01:46:36;;;;;;;;;;;9.30;95.40;;;;;;5097872;28;19919;-79
2021/10/29 01:49:01;;;;;;;;;;;9.20;95.40;;;;;;5078754;28;19912;-78
2021/10/29 01:51:27;;;;;;;;;;;9.30;95.40;;;;;;5097615;28;19920;-78
2021/10/29 01:53:52;;;;;;;;;;;9.20;95.40;;;;;;5097744;28;20365;-79
2021/10/29 01:56:17;;;;;;;;;;;9.30;95.40;;;;;;5097486;28;19953;-79
2021/10/29 01:58:43;;;;;;;;;;;9.30;95.40;;;;;;5097150;28;20056;-79
2021/10/29 02:01:09;;;;;;;;;;;9.20;95.40;;;;;;5097193;28;19992;-79
2021/10/29 02:03:34;;;;;;;;;;;9.20;95.40;;;;;;5096775;28;19912;-79
2021/10/29 02:06:00;;;;;;;;;;;9.20;95.40;;;;;;5078968;28;19999;-79
2021/10/29 02:08:27;;;;;;;;;;;9.20;95.50;;;;;;5097322;28;20000;-79
2021/10/29 02:10:53;;;;;;;;;;;9.20;95.40;;;;;;5097255;28;19915;-79
2021/10/29 02:13:20;;;;;;;;;;;9.20;95.40;;;;;;5096397;28;19920;-79
2021/10/29 02:15:48;;;;;;;;;;;9.20;95.40;;;;;;5095683;28;19927;-78
2021/10/29 02:18:14;;;;;;;;;;;9.20;95.40;;;;;;5097413;28;19912;-79
2021/10/29 02:20:39;;;;;;;;;;;9.20;95.40;;;;;;5097090;28;19915;-78
2021/10/29 02:23:05;;;;;;;;;;;9.30;95.40;;;;;;5097042;28;19991;-79
2021/10/29 02:25:30;;;;;;;;;;;9.30;95.50;;;;;;5097158;28;20295;-79
2021/10/29 02:27:56;;;;;;;;;;;9.30;95.50;;;;;;5078629;28;19908;-78
2021/10/29 02:30:21;;;;;;;;;;;9.30;95.40;;;;;;5096064;28;19916;-78
2021/10/29 02:32:47;;;;;;;;;;;9.40;95.40;;;;;;5078101;28;20033;-80
2021/10/29 02:35:12;;;;;;;;;;;9.30;95.40;;;;;;5078407;28;19957;-79
2021/10/29 02:37:38;;;;;;;;;;;9.30;95.50;;;;;;5096795;28;19908;-79
2021/10/29 02:40:04;;;;;;;;;;;9.40;95.40;;;;;;5096585;28;19919;-80
2021/10/29 02:42:29;;;;;;;;;;;9.40;95.50;;;;;;5096560;28;19992;-79
2021/10/29 02:44:54;;;;;;;;;;;9.40;95.50;;;;;;5096262;28;19912;-80
2021/10/29 02:47:20;;;;;;;;;;;9.40;95.50;;;;;;5096064;28;19912;-79
2021/10/29 02:49:46;;;;;;;;;;;9.40;95.50;;;;;;5096448;28;20410;-79
2021/10/29 02:52:11;;;;;;;;;;;9.40;95.50;;;;;;5096157;28;20429;-78
2021/10/29 02:54:37;;;;;;;;;;;9.50;95.50;;;;;;5096380;28;19908;-79
2021/10/29 02:57:03;;;;;;;;;;;9.50;95.50;;;;;;5096354;28;19908;-79
2021/10/29 02:59:28;;;;;;;;;;;9.50;95.50;;;;;;5095792;28;19908;-80
2021/10/29 03:01:54;;;;;;;;;;;9.50;95.50;;;;;;5095982;28;20284;-79
2021/10/29 03:04:20;;;;;;;;;;;9.50;95.50;;;;;;5096244;28;20021;-80
2021/10/29 03:06:46;;;;;;;;;;;9.50;95.50;;;;;;5096311;28;20318;-80
2021/10/29 03:09:12;;;;;;;;;;;9.50;95.50;;;;;;5095686;28;20360;-79
2021/10/29 03:11:37;;;;;;;;;;;9.50;95.60;;;;;;5077898;28;20030;-80
2021/10/29 03:14:03;;;;;;;;;;;9.50;95.60;;;;;;5095585;28;19923;-80
2021/10/29 03:16:28;;;;;;;;;;;9.50;95.60;;;;;;5095988;28;20276;-79
2021/10/29 03:18:54;;;;;;;;;;;9.60;95.60;;;;;;5095846;28;19998;-79
2021/10/29 03:21:19;;;;;;;;;;;9.50;95.60;;;;;;5095871;28;20034;-79
2021/10/29 03:23:45;;;;;;;;;;;9.60;95.60;;;;;;5077767;28;19909;-79
2021/10/29 03:26:11;;;;;;;;;;;9.60;95.60;;;;;;5077452;28;19916;-80
2021/10/29 03:28:36;;;;;;;;;;;9.60;95.60;;;;;;5094478;28;20380;-78
2021/10/29 03:31:02;;;;;;;;;;;9.60;95.70;;;;;;5077606;28;19908;-79
2021/10/29 03:33:27;;;;;;;;;;;9.60;95.70;;;;;;5095297;28;19928;-77
2021/10/29 03:35:53;;;;;;;;;;;9.60;95.70;;;;;;5095751;28;19909;-79
2021/10/29 03:41:06;;;;;;;;;;;9.60;95.70;;;;;;5095887;28;19994;-78
2021/10/29 03:43:36;;;;;;;;;;;9.60;95.70;;;;;;5095023;28;19961;-79
2021/10/29 03:46:22;;;;;;;;;;;9.70;95.70;;;;;;5094848;28;19912;-81
2021/10/29 03:48:57;;;;;;;;;;;9.60;95.70;;;;;;5095496;28;19915;-79
2021/10/29 03:51:27;;;;;;;;;;;9.60;95.70;;;;;;5095265;28;19928;-79
2021/10/29 03:54:18;;;;;;;;;;;9.60;95.80;;;;;;5095096;28;20023;-80
2021/10/29 03:56:42;;;;;;;;;;;9.60;95.70;;;;;;5094549;28;19912;-79
2021/10/29 03:59:10;;;;;;;;;;;9.60;95.70;;;;;;5094063;28;19912;-79
2021/10/29 04:01:35;;;;;;;;;;;9.60;95.70;;;;;;5095016;28;19908;-78
2021/10/29 04:04:01;;;;;;;;;;;9.60;95.70;;;;;;5094701;28;19973;-79
2021/10/29 04:06:26;;;;;;;;;;;9.60;95.70;;;;;;5095061;28;19912;-79
2021/10/29 04:08:52;;;;;;;;;;;9.60;95.70;;;;;;5095033;28;19974;-80
2021/10/29 04:11:22;;;;;;;;;;;9.60;95.70;;;;;;5094728;28;19912;-79
2021/10/29 04:13:48;;;;;;;;;;;9.60;95.70;;;;;;5094262;28;20388;-78
2021/10/29 04:16:14;;;;;;;;;;;9.60;95.70;;;;;;5094918;28;19987;-79
2021/10/29 04:18:39;;;;;;;;;;;9.70;95.70;;;;;;5094861;28;19908;-79
2021/10/29 04:21:05;;;;;;;;;;;9.60;95.70;;;;;;5094339;28;19912;-79
2021/10/29 04:23:31;;;;;;;;;;;9.70;95.70;;;;;;5094771;28;19915;-79
2021/10/29 04:25:56;;;;;;;;;;;9.60;95.70;;;;;;5094555;28;19916;-79
2021/10/29 04:28:22;;;;;;;;;;;9.60;95.70;;;;;;5094104;28;19908;-79
2021/10/29 04:30:48;;;;;;;;;;;9.60;95.70;;;;;;5094205;28;19912;-78
2021/10/29 04:33:14;;;;;;;;;;;9.60;95.70;;;;;;5076406;28;20015;-79
2021/10/29 04:35:41;;;;;;;;;;;9.60;95.70;;;;;;5094241;28;19955;-79
2021/10/29 04:38:07;;;;;;;;;;;9.60;95.70;;;;;;5094288;28;20758;-79
2021/10/29 04:40:36;;;;;;;;;;;9.60;95.70;;;;;;5076235;28;19912;-78
2021/10/29 04:43:03;;;;;;;;;;;9.70;95.70;;;;;;5093912;28;19915;-80
2021/10/29 04:45:28;;;;;;;;;;;9.70;95.90;;;;;;5094274;28;19908;-79
2021/10/29 04:47:54;;;;;;;;;;;9.70;95.70;;;;;;5094171;28;19912;-79
2021/10/29 04:50:20;;;;;;;;;;;9.70;95.70;;;;;;5094117;28;19927;-79
2021/10/29 04:52:46;;;;;;;;;;;9.70;95.70;;;;;;5093874;28;19916;-79
2021/10/29 04:55:11;;;;;;;;;;;9.70;95.70;;;;;;5094266;28;19944;-79
2021/10/29 04:57:37;;;;;;;;;;;9.70;95.70;;;;;;5092871;28;20407;-79
2021/10/29 05:00:04;;;;;;;;;;;9.70;95.70;;;;;;5093667;28;19920;-79
2021/10/29 05:02:30;;;;;;;;;;;9.70;95.70;;;;;;5094185;28;19908;-79
2021/10/29 05:04:55;;;;;;;;;;;9.80;95.70;;;;;;5094034;28;19915;-79
2021/10/29 05:07:21;;;;;;;;;;;9.80;95.70;;;;;;5092676;28;19919;-79
2021/10/29 05:09:46;;;;;;;;;;;9.80;95.70;;;;;;5093478;28;19958;-80
2021/10/29 05:12:12;;;;;;;;;;;9.80;95.70;;;;;;5094024;28;20309;-80
2021/10/29 05:14:37;;;;;;;;;;;9.80;95.70;;;;;;5075145;28;19912;-80
2021/10/29 05:17:03;;;;;;;;;;;9.80;95.80;;;;;;5093797;28;20010;-79
2021/10/29 05:19:28;;;;;;;;;;;9.80;95.80;;;;;;5093968;28;20356;-79
2021/10/29 05:21:54;;;;;;;;;;;9.80;95.80;;;;;;5093559;28;19918;-78
2021/10/29 05:24:20;;;;;;;;;;;9.80;95.70;;;;;;5093274;28;19943;-78
2021/10/29 05:26:46;;;;;;;;;;;9.80;95.70;;;;;;5093737;28;19908;-79
2021/10/29 05:29:11;;;;;;;;;;;9.80;95.70;;;;;;5093714;28;19915;-79
2021/10/29 05:31:37;;;;;;;;;;;9.80;95.80;;;;;;5093223;28;20411;-79
2021/10/29 05:34:02;;;;;;;;;;;9.80;95.80;;;;;;5093550;28;19916;-79
2021/10/29 05:36:28;;;;;;;;;;;9.80;95.80;;;;;;5093627;28;19916;-79
2021/10/29 05:38:53;;;;;;;;;;;9.80;95.80;;;;;;5093254;28;20061;-79
2021/10/29 05:41:19;;;;;;;;;;;9.80;95.80;;;;;;5093294;28;19942;-79
2021/10/29 05:43:45;;;;;;;;;;;9.80;95.70;;;;;;5093494;28;19912;-80
2021/10/29 05:46:10;;;;;;;;;;;9.80;95.70;;;;;;5093571;28;19908;-80
2021/10/29 05:48:38;;;;;;;;;;;9.80;95.80;;;;;;5093749;28;19912;-80
2021/10/29 05:51:09;;;;;;;;;;;9.80;95.80;;;;;;5093521;28;19993;-79
2021/10/29 05:53:41;;;;;;;;;;;9.80;95.90;;;;;;5093055;28;20492;-78
2021/10/29 05:56:07;;;;;;;;;;;9.90;95.90;;;;;;5093242;28;19912;-79
2021/10/29 05:58:34;;;;;;;;;;;9.90;95.80;;;;;;5075162;28;20439;-80
2021/10/29 06:01:00;;;;;;;;;;;9.90;95.70;;;;;;5093586;28;20007;-79
2021/10/29 06:03:26;;;;;;;;;;;9.80;95.70;;;;;;5093368;28;19962;-79
2021/10/29 06:05:52;;;;;;;;;;;9.80;95.70;;;;;;5093661;28;19908;-79
2021/10/29 06:08:18;;;;;;;;;;;9.80;95.70;;;;;;5092786;28;19908;-79
2021/10/29 06:10:43;;;;;;;;;;;9.80;95.70;;;;;;5075443;28;19915;-85
2021/10/29 06:13:08;;;;;;;;;;;9.70;95.70;;;;;;5076020;28;19923;-85
2021/10/29 06:15:36;;;;;;;;;;;9.70;95.60;;;;;;5093778;28;19912;-82
2021/10/29 06:18:01;;;;;;;;;;;9.70;95.60;;;;;;5094820;28;19931;-82
2021/10/29 06:20:27;;;;;;;;;;;9.70;95.70;;;;;;5097421;28;20276;-82
2021/10/29 06:22:54;;;;;;;;;;;9.70;95.70;;;;;;5097431;28;19915;-81
2021/10/29 06:25:21;;;;;;;;;;;9.60;95.70;;;;;;5097236;28;19909;-83
2021/10/29 06:30:35;;;;;;;;;;;9.60;95.70;;;;;;5097389;28;19915;-81
2021/10/29 06:33:00;;;;;;;;;;;9.70;95.70;;;;;;5078762;28;19923;-82
2021/10/29 06:35:26;;;;;;;;;;;9.70;95.70;;;;;;5078632;28;19909;-82
2021/10/29 06:37:51;;;;;;;;;;;9.70;95.70;;;;;;5096490;28;20006;-83
2021/10/29 06:40:17;;;;;;;;;;;9.70;95.70;;;;;;5096518;28;20364;-83
2021/10/29 06:42:49;;;;;;;;;;;9.70;95.70;;;;;;5097034;28;20375;-83
2021/10/29 06:47:46;;;;;;;;;;;9.70;95.70;;;;;;5096868;28;19908;-81
2021/10/29 07:01:14;;;;;;;;;;;9.70;95.80;;;;;;5095605;28;19919;-83
2021/10/29 07:12:15;;;;;;;;;;;9.80;95.80;;;;;;5096617;28;19950;-80
2021/10/29 07:42:04;;;;;;;;;;;10.10;95.70;;;;;;5096338;28;20372;-84
2021/10/29 07:44:31;;;;;;;;;;;10.10;95.60;;;;;;5077574;28;19915;-83
2021/10/29 07:46:56;;;;;;;;;;;10.20;95.70;;;;;;5095053;28;19912;-84
2021/10/29 07:49:27;;;;;;;;;;;10.20;95.70;;;;;;5077678;28;20446;-87
2021/10/29 07:51:53;;;;;;;;;;;10.20;95.70;;;;;;5078714;28;20300;-91
2021/10/29 07:54:19;;;;;;;;;;;10.30;95.70;;;;;;5097397;28;19912;-91
2021/10/29 07:56:44;;;;;;;;;;;10.30;95.70;;;;;;5098136;28;20009;-91
2021/10/29 07:59:10;;;;;;;;;;;10.40;95.70;;;;;;5097878;28;19909;-77
2021/10/29 08:01:36;;;;;;;;;;;10.40;95.70;;;;;;5096765;28;19912;-93
2021/10/29 08:04:01;;;;;;;;;;;10.50;95.70;;;;;;5097559;28;20002;-92
2021/10/29 08:06:26;;;;;;;;;;;10.50;95.70;;;;;;5108218;28;19908;-89
2021/10/29 08:08:52;;;;;;;;;;;10.60;95.70;;;;;;5101398;28;19908;-90
2021/10/29 08:11:17;;;;;;;;;;;10.60;95.70;;;;;;5096924;28;19919;-93
2021/10/29 08:13:43;;;;;;;;;;;10.70;95.70;;;;;;5078080;28;19943;-85
2021/10/29 08:16:08;;;;;;;;;;;10.70;95.70;;;;;;5095855;28;19912;-85
2021/10/29 08:18:42;;;;;;;;;;;10.80;95.70;;;;;;5095259;28;19919;-86
2021/10/29 08:21:07;;;;;;;;;;;10.90;95.70;;;;;;5095819;28;19912;-85
2021/10/29 08:23:33;;;;;;;;;;;11.00;95.80;;;;;;5095615;28;19916;-88
2021/10/29 08:25:58;;;;;;;;;;;11.00;95.80;;;;;;5095791;28;19913;-88
2021/10/29 08:28:23;;;;;;;;;;;11.20;95.80;;;;;;5096495;28;19947;-83
2021/10/29 08:30:51;;;;;;;;;;;11.20;95.80;;;;;;5077938;28;20365;-86
2021/10/29 08:33:17;;;;;;;;;;;11.40;95.90;;;;;;5094135;28;19916;-82
2021/10/29 08:35:43;;;;;;;;;;;11.40;95.90;;;;;;5094336;28;19973;-82
2021/10/29 08:38:08;;;;;;;;;;;11.50;95.90;;;;;;5094534;28;20016;-82
2021/10/29 08:40:34;;;;;;;;;;;11.60;95.90;;;;;;5094369;28;19955;-82
2021/10/29 08:42:59;;;;;;;;;;;11.60;95.90;;;;;;5094406;28;19978;-82
2021/10/29 08:45:27;;;;;;;;;;;11.70;95.90;;;;;;5094370;28;19908;-83
2021/10/29 08:47:53;;;;;;;;;;;11.70;95.90;;;;;;5075719;28;19908;-86
2021/10/29 08:50:19;;;;;;;;;;;11.80;95.90;;;;;;5076337;28;19989;-82
2021/10/29 08:52:46;;;;;;;;;;;11.90;95.90;;;;;;5094709;28;19916;-85
2021/10/29 08:55:13;;;;;;;;;;;12.00;95.90;;;;;;5095043;28;20003;-84
2021/10/29 08:57:39;;;;;;;;;;;12.10;95.90;;;;;;5094611;28;19915;-84
2021/10/29 09:00:11;;;;;;;;;;;12.20;96.00;;;;;;5095015;28;19919;-81
2021/10/29 09:02:43;;;;;;;;;;;12.20;95.90;;;;;;5095743;28;19916;-83
2021/10/29 09:05:15;;;;;;;;;;;12.30;96.00;;;;;;5077176;28;19970;-82
2021/10/29 09:07:56;;;;;;;;;;;12.40;96.00;;;;;;5094474;28;19912;-84
2021/10/29 09:10:35;;;;;;;;;;;12.50;96.00;;;;;;5076786;28;19915;-86
2021/10/29 09:32:30;;;;;;;;;;;13.10;96.20;;;;;;5094794;28;19923;-87
2021/10/29 09:35:07;;;;;;;;;;;13.20;96.20;;;;;;5094880;28;19931;-85
2021/10/29 09:37:37;;;;;;;;;;;13.30;96.20;;;;;;5095033;28;20003;-86
2021/10/29 09:40:12;;;;;;;;;;;13.30;96.20;;;;;;5095093;28;19915;-91
2021/10/29 09:42:39;;;;;;;;;;;13.40;96.20;;;;;;5094777;28;19908;-86
2021/10/29 09:45:32;;;;;;;;;;;13.40;96.20;;;;;;5076695;28;19952;-87
2021/10/29 09:48:17;;;;;;;;;;;13.50;96.30;;;;;;5092253;28;20002;-89
2021/10/29 09:50:50;;;;;;;;;;;13.60;96.30;;;;;;5094501;28;19920;-88
2021/10/29 09:54:02;;;;;;;;;;;13.70;96.30;;;;;;5096105;28;19928;-85
2021/10/29 09:58:46;;;;;;;;;;;13.90;96.30;;;;;;5100196;28;19912;-88
2021/10/29 10:01:13;;;;;;;;;;;13.90;96.30;;;;;;5102092;28;19908;-90
2021/10/29 10:03:39;;;;;;;;;;;13.90;96.30;;;;;;5099349;28;20360;-87
2021/10/29 10:06:05;;;;;;;;;;;14.00;96.30;;;;;;5099002;28;19912;-86
2021/10/29 10:08:32;;;;;;;;;;;14.10;96.40;;;;;;5098569;28;19934;-84
2021/10/29 10:10:59;;;;;;;;;;;14.10;96.30;;;;;;5100320;28;19908;-86
2021/10/29 10:13:26;;;;;;;;;;;14.20;96.30;;;;;;5107653;28;19920;-89
2021/10/29 10:15:52;;;;;;;;;;;14.20;96.30;;;;;;5084939;28;19908;-88
2021/10/29 10:18:19;;;;;;;;;;;14.30;96.40;;;;;;5100073;28;19999;-86
2021/10/29 10:20:44;;;;;;;;;;;14.30;96.40;;;;;;5081148;28;19912;-93
2021/10/29 10:23:13;;;;;;;;;;;14.40;96.40;;;;;;5099516;28;19914;-89
2021/10/29 10:43:02;;;;;;;;;;;14.70;96.40;;;;;;5101350;28;19977;-91
2021/10/29 10:45:36;;;;;;;;;;;14.80;96.40;;;;;;5098981;28;19931;-95
2021/10/29 10:48:08;;;;;;;;;;;14.80;96.40;;;;;;5082636;28;19953;-92
2021/10/29 10:50:38;;;;;;;;;;;14.90;96.40;;;;;;5083211;28;19927;-88
2021/10/29 10:53:19;;;;;;;;;;;14.90;96.40;;;;;;5097842;28;19916;-84
2021/10/29 11:01:58;;;;;;;;;;;15.10;96.40;;;;;;5097681;28;19908;-93
2021/10/29 11:10:06;;;;;;;;;;;15.30;96.50;;;;;;5100311;28;20357;-95
2021/10/29 11:12:41;;;;;;;;;;;15.40;96.40;;;;;;5099077;28;19916;-94
2021/10/29 11:15:11;;;;;;;;;;;15.50;96.50;;;;;;5099709;28;19915;-90
2021/10/29 11:17:53;;;;;;;;;;;15.50;96.40;;;;;;5099594;28;19908;-94
2021/10/29 11:20:57;;;;;;;;;;;15.60;96.40;;;;;;5102901;28;19965;-89
2021/10/29 11:23:33;;;;;;;;;;;15.60;96.40;;;;;;5098607;28;20280;-90
2021/10/29 11:26:07;;;;;;;;;;;15.70;96.30;;;;;;5099300;28;19915;-90
2021/10/29 11:28:34;;;;;;;;;;;15.70;96.30;;;;;;5097478;28;20421;-88
2021/10/29 11:31:00;;;;;;;;;;;15.70;96.20;;;;;;5102119;28;20003;-90
2021/10/29 11:33:26;;;;;;;;;;;15.80;96.20;;;;;;5099429;28;20006;-89
2021/10/29 11:36:02;;;;;;;;;;;15.80;96.20;;;;;;5099167;28;20428;-88
2021/10/29 11:38:28;;;;;;;;;;;15.80;96.20;;;;;;5098381;28;19915;-87
2021/10/29 11:40:54;;;;;;;;;;;15.80;96.20;;;;;;5098719;28;19915;-90
2021/10/29 11:43:23;;;;;;;;;;;15.80;96.20;;;;;;5102492;28;19908;-88
2021/10/29 11:45:49;;;;;;;;;;;15.80;96.20;;;;;;5100234;28;19908;-91
2021/10/29 11:48:14;;;;;;;;;;;15.80;96.20;;;;;;5099063;28;19967;-89
2021/10/29 11:50:40;;;;;;;;;;;15.90;96.20;;;;;;5097400;28;20257;-86
2021/10/29 11:53:09;;;;;;;;;;;16.00;96.20;;;;;;5098219;28;19993;-90
2021/10/29 11:55:55;;;;;;;;;;;16.00;96.20;;;;;;5098069;28;19916;-93
2021/10/29 11:58:35;;;;;;;;;;;16.10;96.20;;;;;;5101521;28;19915;-92
2021/10/29 12:05:49;;;;;;;;;;;16.10;96.10;;;;;;5098382;28;19961;-89
2021/10/29 12:09:27;;;;;;;;;;;16.40;96.10;;;;;;5098648;28;19912;-91
2021/10/29 12:11:54;;;;;;;;;;;16.50;96.10;;;;;;5099693;28;19915;-96
2021/10/29 12:14:20;;;;;;;;;;;16.60;96.00;;;;;;5101495;28;19943;-91
2021/10/29 12:16:46;;;;;;;;;;;16.60;96.00;;;;;;5099405;28;20356;-91
2021/10/29 12:19:13;;;;;;;;;;;16.70;96.00;;;;;;5098518;28;19984;-90
2021/10/29 12:21:44;;;;;;;;;;;16.70;95.90;;;;;;5101300;28;19977;-91
2021/10/29 12:24:14;;;;;;;;;;;16.70;95.90;;;;;;5099301;28;19908;-93
2021/10/29 12:26:40;;;;;;;;;;;16.80;96.00;;;;;;5081808;28;19995;-89
2021/10/29 12:29:12;;;;;;;;;;;17.00;96.00;;;;;;5098549;28;20013;-93
2021/10/29 12:32:16;;;;;;;;;;;17.20;96.00;;;;;;5099440;28;19975;-94
2021/10/29 12:36:31;;;;;;;;;;;17.50;95.80;;;;;;5098151;28;19916;-87
2021/10/29 13:02:32;;;;;;;;;;;18.80;94.30;;;;;;5098416;28;19944;-93
2021/10/29 13:04:58;;;;;;;;;;;18.80;94.40;;;;;;5098894;28;19936;-91
2021/10/29 13:07:25;;;;;;;;;;;18.70;94.50;;;;;;5098541;28;19953;-95
2021/10/29 13:09:50;;;;;;;;;;;18.70;94.50;;;;;;5101876;28;19930;-93
2021/10/29 13:14:45;;;;;;;;;;;18.60;94.50;;;;;;5097034;28;19951;-89
2021/10/29 13:17:14;;;;;;;;;;;18.40;94.60;;;;;;5097532;28;19908;-93
2021/10/29 13:51:41;;;;;;;;;;;18.40;94.20;;;;;;5094458;28;19927;-89
2021/10/29 13:56:52;;;;;;;;;;;18.20;94.50;;;;;;5098517;28;19912;-79
2021/10/29 14:28:45;;;;;;;;;;;17.30;94.90;;;;;;5093526;28;20379;-82
2021/10/29 14:31:25;;;;;;;;;;;17.20;95.00;;;;;;5075219;28;19915;-85
2021/10/29 14:34:01;;;;;;;;;;;17.20;95.10;;;;;;5092709;28;19916;-78
2021/10/29 14:36:31;;;;;;;;;;;17.10;95.00;;;;;;5092775;28;19912;-75
2021/10/29 14:39:10;;;;;;;;;;;17.10;95.20;;;;;;5094161;28;19908;-78
2021/10/29 14:44:16;;;;;;;;;;;16.90;95.20;;;;;;5095803;28;19912;-80
2021/10/29 14:46:51;;;;;;;;;;;16.80;95.20;;;;;;5095524;28;19918;-78
2021/10/29 14:49:39;;;;;;;;;;;16.70;95.30;;;;;;5096764;28;19938;-79
2021/10/29 15:03:06;;;;;;;;;;;16.40;95.50;;;;;;5095433;28;19962;-81
2021/10/29 15:29:27;;;;;;;;;;;15.50;95.70;;;;;;5095810;28;19912;-82
2021/10/29 15:42:52;;;;;;;;;;;15.50;95.70;;;;;;5095609;28;20009;-80
2021/10/29 15:45:33;;;;;;;;;;;15.60;95.70;;;;;;5095575;28;20011;-80
2021/10/29 15:50:30;;;;;;;;;;;15.60;95.60;;;;;;5094330;28;20026;-80
2021/10/29 15:52:56;;;;;;;;;;;15.60;95.70;;;;;;5076244;28;19916;-80
2021/10/29 15:55:34;;;;;;;;;;;15.60;95.70;;;;;;5094967;28;19916;-80
2021/10/29 15:58:28;;;;;;;;;;;15.50;95.70;;;;;;5095191;28;20007;-80
2021/10/29 16:03:20;;;;;;;;;;;15.60;95.70;;;;;;5094975;28;19908;-80
2021/10/29 16:19:26;;;;;;;;;;;15.60;95.70;;;;;;5094866;28;19954;-79
2021/10/29 16:21:52;;;;;;;;;;;15.60;95.70;;;;;;5094816;28;19909;-80
2021/10/29 16:24:17;;;;;;;;;;;15.70;95.80;;;;;;5094808;28;19908;-80
2021/10/29 16:26:43;;;;;;;;;;;15.70;95.80;;;;;;5094288;28;19912;-79
2021/10/29 16:29:11;;;;;;;;;;;15.70;95.80;;;;;;5076525;28;19974;-80
2021/10/29 16:31:44;;;;;;;;;;;15.70;95.70;;;;;;5094170;28;19908;-80
2021/10/29 16:34:09;;;;;;;;;;;15.70;95.70;;;;;;5094609;28;20008;-79
2021/10/29 16:36:35;;;;;;;;;;;15.80;95.60;;;;;;5094061;28;19959;-77
2021/10/29 16:39:00;;;;;;;;;;;15.80;95.60;;;;;;5094512;28;19915;-75
2021/10/29 16:41:25;;;;;;;;;;;15.60;95.30;;;;;;5094621;28;19908;-76
2021/10/29 16:43:51;;;;;;;;;;;15.20;95.50;;;;;;5094549;28;19975;-77
2021/10/29 16:46:16;;;;;;;;;;;14.80;95.90;;;;;;5093495;28;19943;-76
2021/10/29 16:48:42;;;;;;;;;;;14.60;96.20;;;;;;5093925;28;19916;-77
2021/10/29 16:51:08;;;;;;;;;;;14.50;96.40;;;;;;5094166;28;19920;-76
2021/10/29 16:53:34;;;;;;;;;;;14.30;96.40;;;;;;5094243;28;20019;-77
2021/10/29 16:55:59;;;;;;;;;;;14.30;96.50;;;;;;5093625;28;19951;-76
2021/10/29 16:58:25;;;;;;;;;;;14.20;96.50;;;;;;5075828;28;19916;-74
2021/10/29 17:00:50;;;;;;;;;;;14.10;96.70;;;;;;5093557;28;19961;-74
2021/10/29 17:03:16;;;;;;;;;;;14.00;96.90;;;;;;5093679;28;19965;-76
2021/10/29 17:05:42;;;;;;;;;;;14.00;97.20;;;;;;5094088;28;20270;-75
2021/10/29 17:08:07;;;;;;;;;;;13.90;97.30;;;;;;5093998;28;19908;-75
2021/10/29 17:10:34;;;;;;;;;;;13.90;97.40;;;;;;5094018;28;19915;-76
2021/10/29 17:13:00;;;;;;;;;;;13.80;97.40;;;;;;5093686;28;19916;-76
2021/10/29 17:15:25;;;;;;;;;;;13.90;97.50;;;;;;5075326;28;19915;-76
2021/10/29 17:17:51;;;;;;;;;;;13.80;97.50;;;;;;5093915;28;20364;-74
2021/10/29 17:20:19;;;;;;;;;;;13.80;97.50;;;;;;5093989;28;20268;-76
2021/10/29 17:22:44;;;;;;;;;;;13.80;97.50;;;;;;5093920;28;19916;-75
2021/10/29 17:25:11;;;;;;;;;;;13.80;97.80;;;;;;5093959;28;19908;-75
2021/10/29 17:27:37;;;;;;;;;;;13.80;97.60;;;;;;5093385;28;19912;-76
2021/10/29 17:30:03;;;;;;;;;;;13.90;97.60;;;;;;5093435;28;19931;-76
2021/10/29 17:32:29;;;;;;;;;;;13.90;97.60;;;;;;5093567;28;19912;-76
2021/10/29 17:34:55;;;;;;;;;;;13.80;97.60;;;;;;5093706;28;19912;-74
2021/10/29 17:37:20;;;;;;;;;;;13.80;97.60;;;;;;5093462;28;20284;-75
2021/10/29 17:39:46;;;;;;;;;;;13.80;97.60;;;;;;5093771;28;19908;-74
2021/10/29 17:42:12;;;;;;;;;;;13.80;97.60;;;;;;5093528;28;19927;-75
2021/10/29 17:44:41;;;;;;;;;;;13.70;97.60;;;;;;5093140;28;19915;-74
2021/10/29 17:47:07;;;;;;;;;;;13.70;97.70;;;;;;5093488;28;19965;-75
2021/10/29 17:49:32;;;;;;;;;;;13.70;97.70;;;;;;5093801;28;19908;-74
2021/10/29 17:52:02;;;;;;;;;;;13.60;97.60;;;;;;5093484;28;20257;-77
2021/10/29 17:54:30;;;;;;;;;;;13.60;97.70;;;;;;5093495;28;19939;-76
2021/10/29 17:56:56;;;;;;;;;;;13.50;97.70;;;;;;5093023;28;19919;-76
2021/10/29 17:59:24;;;;;;;;;;;13.50;97.70;;;;;;5074826;28;19908;-76
2021/10/29 18:01:49;;;;;;;;;;;13.50;97.80;;;;;;5075573;28;19915;-75
2021/10/29 18:04:14;;;;;;;;;;;13.50;97.80;;;;;;5093410;28;19912;-75
2021/10/29 18:06:40;;;;;;;;;;;13.40;97.70;;;;;;5093211;28;19919;-76
2021/10/29 18:09:08;;;;;;;;;;;13.50;97.80;;;;;;5093684;28;19998;-76
2021/10/29 18:11:35;;;;;;;;;;;13.40;97.70;;;;;;5094515;28;19908;-76
2021/10/29 18:14:02;;;;;;;;;;;13.40;97.70;;;;;;5094272;28;19923;-76
2021/10/29 18:16:28;;;;;;;;;;;13.40;97.80;;;;;;5097246;28;19915;-75
2021/10/29 18:18:55;;;;;;;;;;;13.40;97.70;;;;;;5097254;28;19908;-76
2021/10/29 18:21:21;;;;;;;;;;;13.50;97.70;;;;;;5096797;28;20007;-76
2021/10/29 18:23:52;;;;;;;;;;;13.50;97.70;;;;;;5097033;28;20360;-75
2021/10/29 18:26:18;;;;;;;;;;;13.50;97.70;;;;;;5097093;28;20276;-76
2021/10/29 18:28:43;;;;;;;;;;;13.40;97.60;;;;;;5096733;28;19915;-75
2021/10/29 18:31:11;;;;;;;;;;;13.40;97.70;;;;;;5096971;28;19908;-77
2021/10/29 18:33:37;;;;;;;;;;;13.40;97.90;;;;;;5096935;28;20065;-75
2021/10/29 18:36:02;;;;;;;;;;;13.40;97.70;;;;;;5096911;28;19950;-76
2021/10/29 18:38:28;;;;;;;;;;;13.40;98.00;;;;;;5078655;28;19908;-75
2021/10/29 18:40:53;;;;;;;;;;;13.40;97.70;;;;;;5096873;28;19919;-76
2021/10/29 18:43:19;;;;;;;;;;;13.40;97.80;;;;;;5096050;28;20008;-74
2021/10/29 18:45:44;;;;;;;;;;;13.40;97.70;;;;;;5096828;28;20007;-75
2021/10/29 18:48:10;;;;;;;;;;;13.40;97.80;;;;;;5096547;28;19908;-76
2021/10/29 18:50:35;;;;;;;;;;;13.30;97.80;;;;;;5096484;28;19943;-76
2021/10/29 18:53:00;;;;;;;;;;;13.30;97.90;;;;;;5078317;28;19922;-77
2021/10/29 18:55:26;;;;;;;;;;;13.30;97.90;;;;;;5096577;28;19955;-76
2021/10/29 18:57:51;;;;;;;;;;;13.30;97.90;;;;;;5096057;28;19962;-75